createdAt,value
2017-12-26T00:00:46.411Z,3.53
2017-12-26T00:01:46.420Z,3.53
2017-12-26T00:02:46.389Z,3.6
2017-12-26T00:03:46.701Z,3.66
2017-12-26T00:04:46.359Z,3.51
2017-12-26T00:05:46.630Z,3.49
2017-12-26T00:06:46.602Z,3.72
2017-12-26T00:07:46.300Z,3.58
2017-12-26T00:08:46.556Z,3.67
2017-12-26T00:09:46.817Z,3.72
2017-12-26T00:10:46.535Z,3.69
2017-12-26T00:11:46.521Z,3.71
2017-12-26T00:12:46.508Z,3.74
2017-12-26T00:13:46.474Z,3.81
2017-12-26T00:14:46.552Z,3.82
2017-12-26T00:15:46.183Z,3.86
2017-12-26T00:16:46.148Z,3.92
2017-12-26T00:17:46.414Z,3.84
2017-12-26T00:18:46.673Z,3.82
2017-12-26T00:19:46.368Z,3.9
2017-12-26T00:20:46.352Z,3.92
2017-12-26T00:21:46.087Z,3.97
2017-12-26T00:22:46.327Z,3.94
2017-12-26T00:23:46.051Z,3.97
2017-12-26T00:24:46.605Z,3.97
2017-12-26T00:25:46.269Z,3.85
2017-12-26T00:26:45.996Z,3.89
2017-12-26T00:27:45.978Z,3.86
2017-12-26T00:28:45.950Z,3.89
2017-12-26T00:29:46.510Z,3.79
2017-12-26T00:30:45.920Z,3.85
2017-12-26T00:31:46.196Z,3.89
2017-12-26T00:32:45.890Z,3.81
2017-12-26T00:33:46.160Z,3.97
2017-12-26T00:34:45.856Z,3.92
2017-12-26T00:35:46.114Z,4
2017-12-26T00:36:46.388Z,3.96
2017-12-26T00:37:45.871Z,3.96
2017-12-26T00:38:46.065Z,3.96
2017-12-26T00:39:46.343Z,3.94
2017-12-26T00:40:45.765Z,4.04
2017-12-26T00:41:46.016Z,3.99
2017-12-26T00:42:46.275Z,3.94
2017-12-26T00:43:45.993Z,4
2017-12-26T00:44:45.983Z,4.03
2017-12-26T00:45:45.962Z,4.03
2017-12-26T00:46:45.937Z,4.07
2017-12-26T00:47:46.158Z,4.15
2017-12-26T00:48:45.795Z,4.03
2017-12-26T00:49:45.824Z,4.14
2017-12-26T00:50:45.854Z,4.08
2017-12-26T00:51:45.721Z,4.1
2017-12-26T00:52:46.458Z,4.1
2017-12-26T00:53:45.740Z,4.12
2017-12-26T00:54:46.000Z,4.12
2017-12-26T00:55:45.743Z,4.21
2017-12-26T00:56:45.692Z,4.08
2017-12-26T00:57:45.670Z,4.12
2017-12-26T00:58:45.657Z,4.21
2017-12-26T00:59:45.749Z,4.04
2017-12-26T01:00:45.758Z,4.12
2017-12-26T01:01:45.708Z,4.07
2017-12-26T01:02:45.436Z,4.07
2017-12-26T01:03:45.669Z,4.04
2017-12-26T01:04:45.385Z,3.99
2017-12-26T01:05:45.378Z,4.03
2017-12-26T01:06:45.369Z,3.97
2017-12-26T01:07:45.618Z,3.89
2017-12-26T01:08:45.322Z,3.93
2017-12-26T01:09:45.304Z,3.86
2017-12-26T01:10:45.286Z,3.82
2017-12-26T01:11:45.543Z,3.76
2017-12-26T01:12:45.528Z,3.75
2017-12-26T01:13:45.562Z,3.74
2017-12-26T01:14:45.227Z,3.76
2017-12-26T01:15:45.484Z,3.85
2017-12-26T01:16:45.215Z,3.76
2017-12-26T01:17:45.451Z,3.71
2017-12-26T01:18:45.449Z,3.76
2017-12-26T01:19:45.155Z,3.69
2017-12-26T01:20:45.412Z,3.6
2017-12-26T01:21:45.403Z,3.6
2017-12-26T01:22:45.101Z,3.67
2017-12-26T01:23:45.353Z,3.58
2017-12-26T01:24:45.119Z,3.54
2017-12-26T01:25:45.053Z,3.49
2017-12-26T01:26:45.035Z,3.49
2017-12-26T01:27:45.020Z,3.53
2017-12-26T01:28:45.283Z,3.42
2017-12-26T01:29:44.987Z,3.42
2017-12-26T01:30:45.263Z,3.46
2017-12-26T01:31:45.224Z,3.53
2017-12-26T01:32:44.942Z,3.53
2017-12-26T01:33:44.932Z,3.51
2017-12-26T01:34:44.912Z,3.53
2017-12-26T01:35:45.445Z,3.48
2017-12-26T01:36:44.874Z,3.42
2017-12-26T01:37:44.862Z,3.43
2017-12-26T01:38:45.118Z,3.42
2017-12-26T01:39:45.373Z,3.4
2017-12-26T01:40:45.100Z,3.4
2017-12-26T01:41:44.795Z,3.4
2017-12-26T01:42:45.051Z,3.45
2017-12-26T01:43:44.763Z,3.35
2017-12-26T01:44:45.041Z,3.43
2017-12-26T01:45:45.012Z,3.39
2017-12-26T01:46:44.985Z,3.46
2017-12-26T01:47:44.969Z,3.49
2017-12-26T01:48:44.682Z,3.49
2017-12-26T01:49:44.974Z,3.54
2017-12-26T01:50:44.941Z,3.71
2017-12-26T01:51:45.187Z,3.72
2017-12-26T01:52:44.619Z,3.76
2017-12-26T01:53:44.605Z,3.85
2017-12-26T01:54:44.858Z,3.85
2017-12-26T01:55:44.586Z,3.84
2017-12-26T01:56:44.833Z,3.85
2017-12-26T01:57:44.807Z,3.78
2017-12-26T01:58:44.542Z,3.86
2017-12-26T01:59:44.782Z,3.9
2017-12-26T02:00:44.492Z,3.94
2017-12-26T02:01:44.767Z,3.9
2017-12-26T02:02:44.730Z,3.94
2017-12-26T02:03:44.735Z,3.85
2017-12-26T02:04:44.445Z,3.86
2017-12-26T02:05:44.682Z,3.94
2017-12-26T02:06:44.396Z,3.93
2017-12-26T02:07:44.377Z,3.96
2017-12-26T02:08:44.362Z,3.96
2017-12-26T02:09:44.351Z,3.94
2017-12-26T02:10:44.608Z,4.07
2017-12-26T02:11:44.588Z,3.92
2017-12-26T02:12:44.586Z,4.07
2017-12-26T02:13:44.553Z,4.12
2017-12-26T02:14:44.301Z,4.14
2017-12-26T02:15:44.797Z,4.17
2017-12-26T02:16:44.518Z,4.2
2017-12-26T02:17:44.516Z,4.15
2017-12-26T02:18:44.474Z,4.21
2017-12-26T02:19:44.460Z,4.17
2017-12-26T02:20:44.720Z,4.15
2017-12-26T02:21:44.703Z,4.12
2017-12-26T02:22:44.159Z,4.18
2017-12-26T02:23:44.127Z,4.11
2017-12-26T02:24:44.381Z,4.14
2017-12-26T02:25:44.094Z,4.07
2017-12-26T02:26:44.372Z,4.12
2017-12-26T02:27:44.601Z,4.04
2017-12-26T02:28:44.044Z,4.15
2017-12-26T02:29:44.031Z,4.07
2017-12-26T02:30:44.014Z,4.14
2017-12-26T02:31:44.276Z,4.1
2017-12-26T02:32:44.263Z,4.18
2017-12-26T02:33:44.241Z,4.15
2017-12-26T02:34:44.498Z,4.15
2017-12-26T02:35:43.994Z,4.18
2017-12-26T02:36:43.925Z,4.18
2017-12-26T02:37:44.192Z,4.18
2017-12-26T02:38:43.886Z,4.15
2017-12-26T02:39:43.872Z,4.14
2017-12-26T02:40:44.131Z,4.15
2017-12-26T02:41:43.841Z,4.18
2017-12-26T02:42:44.365Z,3.94
2017-12-26T02:43:43.809Z,4.04
2017-12-26T02:44:44.414Z,3.93
2017-12-26T02:45:43.777Z,4.04
2017-12-26T02:46:44.313Z,3.97
2017-12-26T02:47:44.024Z,4.04
2017-12-26T02:48:44.001Z,4.1
2017-12-26T02:49:44.008Z,4.08
2017-12-26T02:50:44.269Z,4.03
2017-12-26T02:51:43.969Z,4.14
2017-12-26T02:52:44.212Z,4.1
2017-12-26T02:53:43.956Z,4.1
2017-12-26T02:54:43.637Z,4.07
2017-12-26T02:55:44.178Z,4.11
2017-12-26T02:56:43.605Z,4.14
2017-12-26T02:57:43.603Z,4.11
2017-12-26T02:58:43.606Z,4.04
2017-12-26T02:59:44.121Z,4.12
2017-12-26T03:00:44.093Z,4.07
2017-12-26T03:01:43.801Z,4.03
2017-12-26T03:02:43.793Z,4.02
2017-12-26T03:03:43.778Z,3.97
2017-12-26T03:04:43.750Z,3.96
2017-12-26T03:05:43.745Z,4.04
2017-12-26T03:06:43.718Z,3.97
2017-12-26T03:07:43.699Z,4
2017-12-26T03:08:43.710Z,3.99
2017-12-26T03:09:43.675Z,3.97
2017-12-26T03:10:43.674Z,3.99
2017-12-26T03:11:43.914Z,3.92
2017-12-26T03:12:43.628Z,3.92
2017-12-26T03:13:43.606Z,3.89
2017-12-26T03:14:43.877Z,3.92
2017-12-26T03:15:43.304Z,3.93
2017-12-26T03:16:43.288Z,3.86
2017-12-26T03:17:43.287Z,3.82
2017-12-26T03:18:43.538Z,3.84
2017-12-26T03:19:43.528Z,3.86
2017-12-26T03:20:43.230Z,3.92
2017-12-26T03:21:43.211Z,3.9
2017-12-26T03:22:43.468Z,3.84
2017-12-26T03:23:43.454Z,3.92
2017-12-26T03:24:43.169Z,3.9
2017-12-26T03:25:43.145Z,3.93
2017-12-26T03:26:43.132Z,3.94
2017-12-26T03:27:43.116Z,3.97
2017-12-26T03:28:43.370Z,3.99
2017-12-26T03:29:43.085Z,4
2017-12-26T03:30:43.620Z,3.99
2017-12-26T03:31:43.329Z,3.92
2017-12-26T03:32:43.035Z,4.02
2017-12-26T03:33:43.019Z,4
2017-12-26T03:34:43.568Z,3.94
2017-12-26T03:35:43.535Z,3.92
2017-12-26T03:36:43.521Z,3.84
2017-12-26T03:37:43.233Z,3.85
2017-12-26T03:38:42.956Z,3.85
2017-12-26T03:39:43.196Z,3.85
2017-12-26T03:40:43.185Z,3.81
2017-12-26T03:41:42.895Z,3.79
2017-12-26T03:42:42.878Z,3.89
2017-12-26T03:43:42.862Z,3.9
2017-12-26T03:44:43.118Z,3.93
2017-12-26T03:45:43.105Z,3.96
2017-12-26T03:46:42.814Z,3.84
2017-12-26T03:47:43.128Z,3.97
2017-12-26T03:48:43.055Z,3.94
2017-12-26T03:49:43.040Z,3.92
2017-12-26T03:50:42.751Z,3.96
2017-12-26T03:51:42.737Z,3.82
2017-12-26T03:52:42.991Z,3.9
2017-12-26T03:53:42.979Z,3.86
2017-12-26T03:54:42.689Z,3.81
2017-12-26T03:55:42.680Z,3.92
2017-12-26T03:56:42.671Z,3.9
2017-12-26T03:57:42.910Z,3.89
2017-12-26T03:58:42.731Z,3.82
2017-12-26T03:59:42.880Z,3.94
2017-12-26T04:00:43.146Z,3.97
2017-12-26T04:01:42.592Z,3.96
2017-12-26T04:02:43.112Z,3.86
2017-12-26T04:03:42.818Z,3.9
2017-12-26T04:04:42.529Z,3.86
2017-12-26T04:05:42.808Z,3.84
2017-12-26T04:06:42.552Z,3.86
2017-12-26T04:07:42.761Z,3.82
2017-12-26T04:08:42.739Z,3.74
2017-12-26T04:09:42.451Z,3.75
2017-12-26T04:10:42.719Z,3.76
2017-12-26T04:11:42.702Z,3.79
2017-12-26T04:12:42.410Z,3.56
2017-12-26T04:13:42.933Z,3.61
2017-12-26T04:14:42.371Z,3.64
2017-12-26T04:15:42.644Z,3.54
2017-12-26T04:16:42.344Z,3.61
2017-12-26T04:17:42.325Z,3.69
2017-12-26T04:18:42.313Z,3.67
2017-12-26T04:19:42.293Z,3.69
2017-12-26T04:20:42.295Z,3.72
2017-12-26T04:21:42.263Z,3.74
2017-12-26T04:22:42.247Z,3.75
2017-12-26T04:23:42.248Z,3.66
2017-12-26T04:24:42.214Z,3.69
2017-12-26T04:25:42.198Z,3.72
2017-12-26T04:26:42.732Z,3.78
2017-12-26T04:27:42.167Z,3.75
2017-12-26T04:28:42.150Z,3.67
2017-12-26T04:29:42.139Z,3.76
2017-12-26T04:30:42.119Z,3.63
2017-12-26T04:31:42.370Z,3.78
2017-12-26T04:32:42.360Z,3.81
2017-12-26T04:33:42.620Z,3.79
2017-12-26T04:34:42.066Z,3.72
2017-12-26T04:35:42.039Z,3.64
2017-12-26T04:36:42.295Z,3.67
2017-12-26T04:37:42.279Z,3.66
2017-12-26T04:38:42.274Z,3.71
2017-12-26T04:39:41.995Z,3.66
2017-12-26T04:40:42.237Z,3.66
2017-12-26T04:41:42.217Z,3.67
2017-12-26T04:42:41.950Z,3.72
2017-12-26T04:43:41.918Z,3.66
2017-12-26T04:44:41.896Z,3.74
2017-12-26T04:45:41.878Z,3.66
2017-12-26T04:46:41.878Z,3.71
2017-12-26T04:47:41.850Z,3.64
2017-12-26T04:48:41.835Z,3.74
2017-12-26T04:49:42.100Z,3.69
2017-12-26T04:50:41.802Z,3.81
2017-12-26T04:51:42.325Z,3.76
2017-12-26T04:52:42.048Z,3.82
2017-12-26T04:53:41.751Z,3.78
2017-12-26T04:54:41.775Z,3.79
2017-12-26T04:55:41.751Z,3.79
2017-12-26T04:56:41.707Z,3.79
2017-12-26T04:57:41.687Z,3.82
2017-12-26T04:58:41.948Z,3.81
2017-12-26T04:59:41.928Z,3.85
2017-12-26T05:00:41.654Z,3.9
2017-12-26T05:01:41.625Z,3.81
2017-12-26T05:02:41.614Z,3.97
2017-12-26T05:03:41.593Z,3.92
2017-12-26T05:04:41.853Z,3.82
2017-12-26T05:05:41.564Z,3.85
2017-12-26T05:06:41.826Z,3.92
2017-12-26T05:07:41.802Z,3.97
2017-12-26T05:08:42.067Z,3.99
2017-12-26T05:09:41.528Z,3.93
2017-12-26T05:10:41.777Z,4.02
2017-12-26T05:11:41.739Z,4.04
2017-12-26T05:12:41.452Z,4.03
2017-12-26T05:13:41.440Z,4.07
2017-12-26T05:14:41.743Z,4.17
2017-12-26T05:15:41.676Z,4.2
2017-12-26T05:16:41.390Z,4.2
2017-12-26T05:17:41.645Z,4.3
2017-12-26T05:18:41.665Z,4.29
2017-12-26T05:19:41.612Z,4.38
2017-12-26T05:20:41.626Z,4.3
2017-12-26T05:21:41.312Z,4.32
2017-12-26T05:22:41.846Z,4.38
2017-12-26T05:23:41.553Z,4.33
2017-12-26T05:24:41.265Z,4.3
2017-12-26T05:25:41.247Z,4.39
2017-12-26T05:26:41.287Z,4.35
2017-12-26T05:27:41.772Z,4.35
2017-12-26T05:28:41.494Z,4.36
2017-12-26T05:29:41.184Z,4.4
2017-12-26T05:30:41.186Z,4.44
2017-12-26T05:31:41.156Z,4.42
2017-12-26T05:32:41.159Z,4.42
2017-12-26T05:33:41.394Z,4.39
2017-12-26T05:34:41.110Z,4.44
2017-12-26T05:35:41.646Z,4.53
2017-12-26T05:36:41.080Z,4.51
2017-12-26T05:37:41.133Z,4.51
2017-12-26T05:38:41.328Z,4.6
2017-12-26T05:39:41.310Z,4.61
2017-12-26T05:40:41.568Z,4.65
2017-12-26T05:41:41.000Z,4.65
2017-12-26T05:42:40.984Z,4.65
2017-12-26T05:43:40.970Z,4.74
2017-12-26T05:44:40.965Z,4.76
2017-12-26T05:45:41.209Z,4.84
2017-12-26T05:46:40.922Z,4.83
2017-12-26T05:47:41.453Z,4.79
2017-12-26T05:48:41.213Z,4.78
2017-12-26T05:49:41.436Z,4.69
2017-12-26T05:50:40.863Z,4.83
2017-12-26T05:51:41.121Z,4.79
2017-12-26T05:52:40.829Z,4.75
2017-12-26T05:53:41.086Z,4.84
2017-12-26T05:54:41.362Z,4.76
2017-12-26T05:55:40.783Z,4.79
2017-12-26T05:56:41.342Z,4.87
2017-12-26T05:57:40.759Z,4.85
2017-12-26T05:58:40.744Z,4.87
2017-12-26T05:59:40.737Z,4.85
2017-12-26T06:00:40.709Z,4.68
2017-12-26T06:01:41.265Z,4.74
2017-12-26T06:02:40.999Z,4.74
2017-12-26T06:03:40.938Z,4.71
2017-12-26T06:04:40.646Z,4.75
2017-12-26T06:05:40.632Z,4.84
2017-12-26T06:06:40.889Z,4.72
2017-12-26T06:07:41.148Z,4.69
2017-12-26T06:08:41.140Z,4.68
2017-12-26T06:09:40.572Z,4.69
2017-12-26T06:10:40.560Z,4.69
2017-12-26T06:11:40.817Z,4.75
2017-12-26T06:12:40.527Z,4.75
2017-12-26T06:13:40.514Z,4.74
2017-12-26T06:14:40.492Z,4.69
2017-12-26T06:15:40.481Z,4.79
2017-12-26T06:16:40.466Z,4.76
2017-12-26T06:17:40.449Z,4.75
2017-12-26T06:18:40.446Z,4.74
2017-12-26T06:19:40.421Z,4.74
2017-12-26T06:20:40.686Z,4.76
2017-12-26T06:21:40.678Z,4.74
2017-12-26T06:22:40.373Z,4.78
2017-12-26T06:23:40.359Z,4.83
2017-12-26T06:24:40.345Z,4.79
2017-12-26T06:25:40.604Z,4.85
2017-12-26T06:26:40.314Z,4.92
2017-12-26T06:27:40.569Z,4.91
2017-12-26T06:28:40.555Z,4.94
2017-12-26T06:29:40.268Z,4.9
2017-12-26T06:30:40.253Z,4.85
2017-12-26T06:31:40.278Z,4.76
2017-12-26T06:32:40.492Z,4.88
2017-12-26T06:33:40.206Z,4.95
2017-12-26T06:34:40.740Z,4.9
2017-12-26T06:35:40.183Z,4.85
2017-12-26T06:36:40.162Z,4.85
2017-12-26T06:37:40.156Z,4.84
2017-12-26T06:38:40.158Z,4.79
2017-12-26T06:39:40.683Z,4.85
2017-12-26T06:40:40.105Z,4.75
2017-12-26T06:41:40.378Z,4.69
2017-12-26T06:42:40.347Z,4.74
2017-12-26T06:43:40.329Z,4.65
2017-12-26T06:44:40.325Z,4.65
2017-12-26T06:45:40.314Z,4.6
2017-12-26T06:46:40.013Z,4.61
2017-12-26T06:47:40.269Z,4.61
2017-12-26T06:48:40.289Z,4.46
2017-12-26T06:49:40.241Z,4.44
2017-12-26T06:50:39.964Z,4.46
2017-12-26T06:51:39.937Z,4.54
2017-12-26T06:52:39.943Z,4.48
2017-12-26T06:53:40.179Z,4.47
2017-12-26T06:54:40.162Z,4.36
2017-12-26T06:55:39.882Z,4.35
2017-12-26T06:56:40.132Z,4.22
2017-12-26T06:57:40.119Z,4.28
2017-12-26T06:58:39.832Z,4.24
2017-12-26T06:59:39.816Z,4.29
2017-12-26T07:00:40.074Z,4.18
2017-12-26T07:01:39.785Z,4.18
2017-12-26T07:02:39.769Z,4.07
2017-12-26T07:03:40.230Z,4.07
2017-12-26T07:04:39.744Z,3.94
2017-12-26T07:05:39.723Z,3.92
2017-12-26T07:06:39.980Z,3.92
2017-12-26T07:07:39.970Z,3.86
2017-12-26T07:08:40.005Z,3.85
2017-12-26T07:09:39.664Z,3.76
2017-12-26T07:10:40.195Z,3.85
2017-12-26T07:11:39.637Z,3.82
2017-12-26T07:12:39.888Z,3.86
2017-12-26T07:13:39.652Z,3.84
2017-12-26T07:14:39.861Z,3.84
2017-12-26T07:15:39.842Z,3.84
2017-12-26T07:16:39.839Z,3.85
2017-12-26T07:17:39.541Z,3.81
2017-12-26T07:18:39.544Z,3.86
2017-12-26T07:19:39.531Z,3.94
2017-12-26T07:20:39.765Z,4.03
2017-12-26T07:21:39.509Z,3.97
2017-12-26T07:22:39.474Z,4.1
2017-12-26T07:23:39.719Z,4.11
2017-12-26T07:24:39.453Z,4.14
2017-12-26T07:25:39.957Z,4.15
2017-12-26T07:26:39.673Z,4.22
2017-12-26T07:27:39.443Z,4.3
2017-12-26T07:28:39.370Z,4.22
2017-12-26T07:29:39.355Z,4.24
2017-12-26T07:30:39.619Z,4.38
2017-12-26T07:31:39.593Z,4.33
2017-12-26T07:32:39.322Z,4.35
2017-12-26T07:33:39.578Z,4.24
2017-12-26T07:34:39.276Z,4.26
2017-12-26T07:35:39.853Z,4.18
2017-12-26T07:36:39.245Z,4.28
2017-12-26T07:37:39.231Z,4.21
2017-12-26T07:38:39.214Z,4.17
2017-12-26T07:39:39.197Z,4.14
2017-12-26T07:40:39.183Z,4.24
2017-12-26T07:41:39.166Z,4.26
2017-12-26T07:42:39.724Z,4.21
2017-12-26T07:43:39.149Z,4.32
2017-12-26T07:44:39.136Z,4.36
2017-12-26T07:45:39.379Z,4.29
2017-12-26T07:46:39.097Z,4.39
2017-12-26T07:47:39.619Z,4.42
2017-12-26T07:48:39.062Z,4.47
2017-12-26T07:49:39.331Z,4.47
2017-12-26T07:50:39.033Z,4.53
2017-12-26T07:51:39.283Z,4.54
2017-12-26T07:52:38.994Z,4.53
2017-12-26T07:53:39.284Z,4.53
2017-12-26T07:54:38.986Z,4.51
2017-12-26T07:55:39.534Z,4.5
2017-12-26T07:56:39.139Z,4.53
2017-12-26T07:57:39.486Z,4.44
2017-12-26T07:58:39.181Z,4.47
2017-12-26T07:59:38.892Z,4.56
2017-12-26T08:00:38.874Z,4.54
2017-12-26T08:01:39.133Z,4.58
2017-12-26T08:02:39.134Z,4.64
2017-12-26T08:03:38.830Z,4.72
2017-12-26T08:04:39.129Z,4.74
2017-12-26T08:05:38.802Z,4.74
2017-12-26T08:06:39.333Z,4.75
2017-12-26T08:07:38.774Z,4.79
2017-12-26T08:08:38.753Z,4.91
2017-12-26T08:09:39.020Z,4.94
2017-12-26T08:10:38.993Z,4.91
2017-12-26T08:11:38.713Z,5
2017-12-26T08:12:38.693Z,4.95
2017-12-26T08:13:38.957Z,4.98
2017-12-26T08:14:38.662Z,4.97
2017-12-26T08:15:38.931Z,4.91
2017-12-26T08:16:38.957Z,5
2017-12-26T08:17:38.940Z,4.98
2017-12-26T08:18:38.609Z,5.02
2017-12-26T08:19:39.130Z,5.05
2017-12-26T08:20:38.844Z,5.08
2017-12-26T08:21:39.116Z,5.03
2017-12-26T08:22:38.543Z,5.1
2017-12-26T08:23:38.811Z,5.08
2017-12-26T08:24:38.784Z,5.15
2017-12-26T08:25:38.498Z,5.15
2017-12-26T08:26:38.758Z,5.16
2017-12-26T08:27:38.470Z,5.16
2017-12-26T08:28:38.482Z,5.15
2017-12-26T08:29:38.718Z,5.15
2017-12-26T08:30:38.425Z,5.18
2017-12-26T08:31:38.409Z,5.15
2017-12-26T08:32:38.671Z,5.16
2017-12-26T08:33:38.394Z,5.15
2017-12-26T08:34:38.638Z,5.16
2017-12-26T08:35:38.351Z,5.18
2017-12-26T08:36:38.333Z,5.28
2017-12-26T08:37:38.866Z,5.3
2017-12-26T08:38:38.326Z,5.26
2017-12-26T08:39:38.564Z,5.33
2017-12-26T08:40:39.027Z,5.36
2017-12-26T08:41:38.280Z,5.44
2017-12-26T08:42:38.254Z,5.41
2017-12-26T08:43:38.523Z,5.39
2017-12-26T08:44:38.217Z,5.42
2017-12-26T08:45:38.206Z,5.46
2017-12-26T08:46:38.460Z,5.48
2017-12-26T08:47:38.447Z,5.62
2017-12-26T08:48:38.160Z,5.64
2017-12-26T08:49:38.431Z,5.62
2017-12-26T08:50:38.420Z,5.59
2017-12-26T08:51:38.408Z,5.59
2017-12-26T08:52:38.372Z,5.62
2017-12-26T08:53:38.088Z,5.59
2017-12-26T08:54:38.085Z,5.64
2017-12-26T08:55:38.331Z,5.62
2017-12-26T08:56:38.045Z,5.62
2017-12-26T08:57:38.307Z,5.63
2017-12-26T08:58:38.564Z,5.7
2017-12-26T08:59:38.272Z,5.66
2017-12-26T09:00:38.258Z,5.66
2017-12-26T09:01:38.244Z,5.63
2017-12-26T09:02:37.953Z,5.63
2017-12-26T09:03:38.215Z,5.64
2017-12-26T09:04:37.937Z,5.55
2017-12-26T09:05:38.193Z,5.59
2017-12-26T09:06:37.931Z,5.64
2017-12-26T09:07:38.159Z,5.67
2017-12-26T09:08:37.872Z,5.63
2017-12-26T09:09:37.855Z,5.77
2017-12-26T09:10:37.841Z,5.7
2017-12-26T09:11:37.849Z,5.73
2017-12-26T09:12:37.814Z,5.78
2017-12-26T09:13:37.822Z,5.77
2017-12-26T09:14:37.789Z,5.77
2017-12-26T09:15:37.771Z,5.81
2017-12-26T09:16:38.299Z,5.85
2017-12-26T09:17:38.368Z,5.78
2017-12-26T09:18:37.726Z,5.92
2017-12-26T09:19:38.277Z,5.85
2017-12-26T09:20:37.970Z,5.84
2017-12-26T09:21:37.682Z,5.81
2017-12-26T09:22:37.983Z,5.8
2017-12-26T09:23:37.680Z,5.77
2017-12-26T09:24:37.921Z,5.78
2017-12-26T09:25:37.646Z,5.87
2017-12-26T09:26:37.613Z,5.77
2017-12-26T09:27:37.605Z,5.78
2017-12-26T09:28:37.598Z,5.82
2017-12-26T09:29:37.573Z,5.77
2017-12-26T09:30:37.832Z,5.78
2017-12-26T09:31:37.818Z,5.8
2017-12-26T09:32:37.534Z,5.81
2017-12-26T09:33:37.528Z,5.82
2017-12-26T09:34:37.774Z,5.72
2017-12-26T09:35:37.487Z,5.77
2017-12-26T09:36:37.745Z,5.77
2017-12-26T09:37:37.460Z,5.82
2017-12-26T09:38:37.734Z,5.81
2017-12-26T09:39:37.430Z,5.75
2017-12-26T09:40:37.691Z,5.78
2017-12-26T09:41:37.679Z,5.77
2017-12-26T09:42:37.662Z,5.87
2017-12-26T09:43:37.643Z,5.8
2017-12-26T09:44:37.360Z,5.84
2017-12-26T09:45:37.343Z,5.77
2017-12-26T09:46:37.945Z,5.8
2017-12-26T09:47:37.925Z,5.82
2017-12-26T09:48:37.366Z,5.78
2017-12-26T09:49:37.387Z,5.87
2017-12-26T09:50:37.604Z,5.78
2017-12-26T09:51:37.760Z,5.78
2017-12-26T09:52:37.415Z,5.82
2017-12-26T09:53:37.563Z,5.8
2017-12-26T09:54:37.926Z,5.77
2017-12-26T09:55:37.290Z,5.77
2017-12-26T09:56:38.038Z,5.77
2017-12-26T09:57:37.380Z,5.78
2017-12-26T09:58:37.507Z,5.85
2017-12-26T09:59:37.543Z,5.81
2017-12-26T10:00:37.454Z,5.72
2017-12-26T10:01:37.442Z,5.67
2017-12-26T10:02:37.731Z,5.73
2017-12-26T10:03:37.122Z,5.7
2017-12-26T10:04:37.199Z,5.75
2017-12-26T10:05:37.259Z,5.72
2017-12-26T10:06:37.761Z,5.67
2017-12-26T10:07:37.184Z,5.7
2017-12-26T10:08:37.293Z,5.75
2017-12-26T10:09:37.514Z,5.73
2017-12-26T10:10:37.522Z,5.78
2017-12-26T10:11:37.291Z,5.72
2017-12-26T10:12:37.557Z,5.8
2017-12-26T10:13:37.277Z,5.78
2017-12-26T10:14:37.433Z,5.73
2017-12-26T10:15:37.156Z,5.8
2017-12-26T10:16:37.170Z,5.77
2017-12-26T10:17:37.586Z,5.67
2017-12-26T10:18:37.818Z,5.75
2017-12-26T10:19:37.623Z,5.73
2017-12-26T10:20:37.128Z,5.69
2017-12-26T10:21:37.129Z,5.69
2017-12-26T10:22:37.352Z,5.64
2017-12-26T10:23:37.592Z,5.69
2017-12-26T10:24:37.666Z,5.7
2017-12-26T10:25:37.349Z,5.77
2017-12-26T10:26:38.839Z,5.78
2017-12-26T10:27:37.810Z,5.75
2017-12-26T10:29:37.243Z,5.78
2017-12-26T10:30:37.249Z,5.78
2017-12-26T10:31:36.951Z,5.75
2017-12-26T10:32:37.703Z,5.72
2017-12-26T10:33:37.737Z,5.7
2017-12-26T10:34:37.232Z,5.73
2017-12-26T10:35:36.892Z,5.7
2017-12-26T10:36:36.626Z,5.72
2017-12-26T10:37:36.884Z,5.7
2017-12-26T10:38:37.021Z,5.7
2017-12-26T10:39:36.622Z,5.63
2017-12-26T10:40:37.143Z,5.69
2017-12-26T10:41:36.828Z,5.72
2017-12-26T10:42:36.544Z,5.63
2017-12-26T10:43:36.810Z,5.69
2017-12-26T10:44:36.785Z,5.7
2017-12-26T10:45:36.503Z,5.66
2017-12-26T10:46:37.410Z,5.73
2017-12-26T10:47:37.115Z,5.73
2017-12-26T10:48:36.615Z,5.75
2017-12-26T10:49:36.688Z,5.73
2017-12-26T10:50:37.528Z,5.75
2017-12-26T10:51:36.937Z,5.78
2017-12-26T10:52:37.381Z,5.82
2017-12-26T10:53:36.651Z,5.84
2017-12-26T10:54:37.215Z,5.89
2017-12-26T10:55:36.957Z,5.78
2017-12-26T10:56:36.827Z,5.85
2017-12-26T10:57:36.475Z,5.95
2017-12-26T10:58:37.143Z,5.91
2017-12-26T10:59:36.994Z,5.95
2017-12-26T11:00:36.307Z,5.91
2017-12-26T11:01:36.270Z,5.89
2017-12-26T11:02:36.897Z,5.92
2017-12-26T11:03:36.541Z,5.98
2017-12-26T11:04:36.623Z,5.99
2017-12-26T11:05:36.491Z,6.02
2017-12-26T11:06:38.541Z,6.02
2017-12-26T11:07:36.701Z,6.06
2017-12-26T11:08:36.448Z,6.1
2017-12-26T11:09:36.437Z,6.21
2017-12-26T11:10:36.725Z,6.29
2017-12-26T11:11:36.479Z,6.26
2017-12-26T11:12:36.222Z,6.33
2017-12-26T11:13:36.600Z,6.42
2017-12-26T11:14:36.518Z,6.39
2017-12-26T11:15:36.912Z,6.39
2017-12-26T11:16:36.516Z,6.39
2017-12-26T11:17:36.474Z,6.39
2017-12-26T11:18:36.661Z,6.36
2017-12-26T11:19:36.574Z,6.36
2017-12-26T11:20:36.007Z,6.39
2017-12-26T11:21:35.993Z,6.36
2017-12-26T11:22:36.273Z,6.31
2017-12-26T11:23:35.971Z,6.28
2017-12-26T11:24:35.949Z,6.18
2017-12-26T11:25:36.211Z,6.17
2017-12-26T11:26:36.197Z,6.15
2017-12-26T11:27:36.457Z,6.1
2017-12-26T11:28:36.441Z,6.13
2017-12-26T11:29:36.156Z,6.1
2017-12-26T11:30:36.142Z,6.02
2017-12-26T11:31:35.857Z,6
2017-12-26T11:32:36.112Z,6.02
2017-12-26T11:33:35.827Z,6.02
2017-12-26T11:34:36.088Z,6
2017-12-26T11:35:35.815Z,6
2017-12-26T11:36:36.059Z,5.95
2017-12-26T11:37:35.772Z,5.98
2017-12-26T11:38:36.033Z,5.99
2017-12-26T11:39:35.744Z,5.96
2017-12-26T11:40:36.047Z,5.96
2017-12-26T11:41:36.005Z,6
2017-12-26T11:42:35.974Z,6
2017-12-26T11:43:35.689Z,5.99
2017-12-26T11:44:35.675Z,6.06
2017-12-26T11:45:36.205Z,6.02
2017-12-26T11:46:35.645Z,6.07
2017-12-26T11:47:35.906Z,6.09
2017-12-26T11:48:35.673Z,6.05
2017-12-26T11:49:35.875Z,6.07
2017-12-26T11:50:35.591Z,6.02
2017-12-26T11:51:36.056Z,6.05
2017-12-26T11:52:35.838Z,6.05
2017-12-26T11:53:35.825Z,6.05
2017-12-26T11:54:36.082Z,6
2017-12-26T11:55:35.794Z,5.96
2017-12-26T11:56:36.062Z,6
2017-12-26T11:57:35.766Z,6.05
2017-12-26T11:58:35.764Z,6
2017-12-26T11:59:35.465Z,5.99
2017-12-26T12:00:35.452Z,6.07
2017-12-26T12:01:35.712Z,6.17
2017-12-26T12:02:35.422Z,6.28
2017-12-26T12:03:35.417Z,6.28
2017-12-26T12:04:35.396Z,6.37
2017-12-26T12:05:35.669Z,6.39
2017-12-26T12:06:35.387Z,6.37
2017-12-26T12:07:35.354Z,6.43
2017-12-26T12:08:35.618Z,6.43
2017-12-26T12:09:35.328Z,6.55
2017-12-26T12:10:35.618Z,6.61
2017-12-26T12:11:35.888Z,6.61
2017-12-26T12:12:35.567Z,6.62
2017-12-26T12:13:35.545Z,6.65
2017-12-26T12:14:35.262Z,6.64
2017-12-26T12:15:35.517Z,6.72
2017-12-26T12:16:35.245Z,6.78
2017-12-26T12:17:35.493Z,6.86
2017-12-26T12:18:35.477Z,6.88
2017-12-26T12:19:35.190Z,6.91
2017-12-26T12:20:35.176Z,6.91
2017-12-26T12:21:35.450Z,7
2017-12-26T12:22:35.430Z,7
2017-12-26T12:23:35.693Z,7.03
2017-12-26T12:24:35.125Z,7.05
2017-12-26T12:25:35.382Z,7.03
2017-12-26T12:26:35.097Z,7.03
2017-12-26T12:27:35.356Z,7.05
2017-12-26T12:28:35.067Z,7.12
2017-12-26T12:29:35.335Z,7.08
2017-12-26T12:30:35.315Z,7.16
2017-12-26T12:31:35.579Z,7.18
2017-12-26T12:32:35.298Z,7.23
2017-12-26T12:33:35.025Z,7.18
2017-12-26T12:34:34.987Z,7.15
2017-12-26T12:35:35.264Z,7.19
2017-12-26T12:36:34.961Z,7.16
2017-12-26T12:37:35.494Z,7.21
2017-12-26T12:38:35.482Z,7.16
2017-12-26T12:39:34.921Z,7.13
2017-12-26T12:40:34.918Z,6.97
2017-12-26T12:41:35.167Z,6.97
2017-12-26T12:42:35.156Z,6.98
2017-12-26T12:43:35.142Z,6.93
2017-12-26T12:44:34.867Z,6.8
2017-12-26T12:45:35.123Z,6.8
2017-12-26T12:46:35.126Z,6.83
2017-12-26T12:47:34.817Z,6.83
2017-12-26T12:48:35.080Z,6.83
2017-12-26T12:49:35.350Z,6.8
2017-12-26T12:50:34.780Z,6.83
2017-12-26T12:51:34.787Z,6.9
2017-12-26T12:52:34.751Z,6.88
2017-12-26T12:53:35.012Z,6.86
2017-12-26T12:54:35.016Z,6.82
2017-12-26T12:55:34.732Z,6.76
2017-12-26T12:56:34.697Z,6.75
2017-12-26T12:57:34.957Z,6.76
2017-12-26T12:58:34.944Z,6.72
2017-12-26T12:59:35.210Z,6.68
2017-12-26T13:00:34.920Z,6.62
2017-12-26T13:01:35.176Z,6.62
2017-12-26T13:02:34.618Z,6.57
2017-12-26T13:03:35.155Z,6.57
2017-12-26T13:04:34.593Z,6.54
2017-12-26T13:05:34.853Z,6.46
2017-12-26T13:06:34.842Z,6.47
2017-12-26T13:07:34.824Z,6.42
2017-12-26T13:08:34.808Z,6.44
2017-12-26T13:09:34.542Z,6.47
2017-12-26T13:10:34.512Z,6.39
2017-12-26T13:11:35.046Z,6.43
2017-12-26T13:12:34.482Z,6.42
2017-12-26T13:13:34.482Z,6.24
2017-12-26T13:14:34.460Z,6.29
2017-12-26T13:15:34.717Z,6.31
2017-12-26T13:16:34.428Z,6.36
2017-12-26T13:17:34.415Z,6.26
2017-12-26T13:18:34.674Z,6.31
2017-12-26T13:19:34.950Z,6.31
2017-12-26T13:20:35.053Z,6.29
2017-12-26T13:21:34.362Z,6.31
2017-12-26T13:22:34.895Z,6.31
2017-12-26T13:23:34.897Z,6.33